sensor_id;sensor_type;location;lat;lon;timestamp;P1;durP1;ratioP1;P2;durP2;ratioP2
6725;SDS011;3400;48.506;11.692;2023-04-25T00:01:56;2.43;;;2.27;;
6725;SDS011;3400;48.506;11.692;2023-04-25T00:04:25;3.40;;;2.90;;
6725;SDS011;3400;48.506;11.692;2023-04-25T00:06:55;2.30;;;2.20;;
6725;SDS011;3400;48.506;11.692;2023-04-25T00:09:23;3.17;;;2.87;;
6725;SDS011;3400;48.506;11.692;2023-04-25T00:11:52;3.57;;;3.00;;
6725;SDS011;3400;48.506;11.692;2023-04-25T00:14:20;3.30;;;2.67;;
6725;SDS011;3400;48.506;11.692;2023-04-25T00:16:48;2.80;;;2.60;;
6725;SDS011;3400;48.506;11.692;2023-04-25T00:19:17;4.03;;;2.80;;
6725;SDS011;3400;48.506;11.692;2023-04-25T00:21:45;4.97;;;2.83;;
6725;SDS011;3400;48.506;11.692;2023-04-25T00:24:13;4.77;;;2.73;;
6725;SDS011;3400;48.506;11.692;2023-04-25T00:26:41;2.83;;;2.63;;
6725;SDS011;3400;48.506;11.692;2023-04-25T00:29:10;4.07;;;3.27;;
6725;SDS011;3400;48.506;11.692;2023-04-25T00:31:38;3.90;;;3.13;;
6725;SDS011;3400;48.506;11.692;2023-04-25T00:34:06;3.07;;;2.77;;
6725;SDS011;3400;48.506;11.692;2023-04-25T00:36:35;3.63;;;3.33;;
6725;SDS011;3400;48.506;11.692;2023-04-25T00:39:03;2.90;;;2.70;;
6725;SDS011;3400;48.506;11.692;2023-04-25T00:41:32;9.70;;;3.10;;
6725;SDS011;3400;48.506;11.692;2023-04-25T00:44:00;3.20;;;3.00;;
6725;SDS011;3400;48.506;11.692;2023-04-25T00:46:30;5.33;;;3.03;;
6725;SDS011;3400;48.506;11.692;2023-04-25T00:48:58;6.80;;;4.07;;
6725;SDS011;3400;48.506;11.692;2023-04-25T00:51:26;5.03;;;3.27;;
6725;SDS011;3400;48.506;11.692;2023-04-25T00:53:54;4.27;;;3.13;;
6725;SDS011;3400;48.506;11.692;2023-04-25T00:56:22;4.50;;;3.10;;
6725;SDS011;3400;48.506;11.692;2023-04-25T00:58:51;2.97;;;2.77;;
6725;SDS011;3400;48.506;11.692;2023-04-25T01:01:22;4.53;;;3.23;;
6725;SDS011;3400;48.506;11.692;2023-04-25T01:03:51;3.27;;;3.00;;
6725;SDS011;3400;48.506;11.692;2023-04-25T01:06:21;4.67;;;3.17;;
6725;SDS011;3400;48.506;11.692;2023-04-25T01:08:49;3.50;;;3.20;;
6725;SDS011;3400;48.506;11.692;2023-04-25T01:11:17;2.77;;;2.57;;
6725;SDS011;3400;48.506;11.692;2023-04-25T01:13:45;3.40;;;3.10;;
6725;SDS011;3400;48.506;11.692;2023-04-25T01:16:13;3.20;;;3.00;;
6725;SDS011;3400;48.506;11.692;2023-04-25T01:18:41;5.17;;;3.40;;
6725;SDS011;3400;48.506;11.692;2023-04-25T01:21:11;3.50;;;3.20;;
6725;SDS011;3400;48.506;11.692;2023-04-25T01:23:40;3.60;;;3.30;;
6725;SDS011;3400;48.506;11.692;2023-04-25T01:26:08;3.53;;;3.23;;
6725;SDS011;3400;48.506;11.692;2023-04-25T01:28:36;3.37;;;3.07;;
6725;SDS011;3400;48.506;11.692;2023-04-25T01:31:07;3.87;;;3.10;;
6725;SDS011;3400;48.506;11.692;2023-04-25T01:33:36;2.90;;;2.60;;
6725;SDS011;3400;48.506;11.692;2023-04-25T01:36:04;4.97;;;3.27;;
6725;SDS011;3400;48.506;11.692;2023-04-25T01:38:35;3.63;;;3.33;;
6725;SDS011;3400;48.506;11.692;2023-04-25T01:41:03;3.17;;;2.83;;
6725;SDS011;3400;48.506;11.692;2023-04-25T01:43:32;4.33;;;3.53;;
6725;SDS011;3400;48.506;11.692;2023-04-25T01:46:01;3.07;;;2.87;;
6725;SDS011;3400;48.506;11.692;2023-04-25T01:48:29;5.20;;;3.53;;
6725;SDS011;3400;48.506;11.692;2023-04-25T01:50:57;4.03;;;3.37;;
6725;SDS011;3400;48.506;11.692;2023-04-25T01:53:25;4.17;;;2.97;;
6725;SDS011;3400;48.506;11.692;2023-04-25T01:55:55;3.73;;;2.90;;
6725;SDS011;3400;48.506;11.692;2023-04-25T01:58:25;3.20;;;2.90;;
6725;SDS011;3400;48.506;11.692;2023-04-25T02:01:16;3.77;;;3.40;;
6725;SDS011;3400;48.506;11.692;2023-04-25T02:03:52;3.43;;;2.87;;
6725;SDS011;3400;48.506;11.692;2023-04-25T02:06:26;3.50;;;3.00;;
6725;SDS011;3400;48.506;11.692;2023-04-25T02:08:56;3.03;;;2.63;;
6725;SDS011;3400;48.506;11.692;2023-04-25T02:11:25;3.00;;;2.80;;
6725;SDS011;3400;48.506;11.692;2023-04-25T02:14:14;3.70;;;3.40;;
6725;SDS011;3400;48.506;11.692;2023-04-25T02:16:54;2.90;;;2.67;;
6725;SDS011;3400;48.506;11.692;2023-04-25T02:19:23;3.40;;;3.10;;
6725;SDS011;3400;48.506;11.692;2023-04-25T02:21:50;4.63;;;3.30;;
6725;SDS011;3400;48.506;11.692;2023-04-25T02:24:18;5.40;;;3.70;;
6725;SDS011;3400;48.506;11.692;2023-04-25T02:26:48;6.37;;;3.20;;
6725;SDS011;3400;48.506;11.692;2023-04-25T02:29:16;4.00;;;3.30;;
6725;SDS011;3400;48.506;11.692;2023-04-25T02:31:44;2.87;;;2.67;;
6725;SDS011;3400;48.506;11.692;2023-04-25T02:34:12;4.30;;;3.03;;
6725;SDS011;3400;48.506;11.692;2023-04-25T02:36:40;4.77;;;3.37;;
6725;SDS011;3400;48.506;11.692;2023-04-25T02:39:08;3.90;;;3.60;;
6725;SDS011;3400;48.506;11.692;2023-04-25T02:41:36;3.87;;;3.33;;
6725;SDS011;3400;48.506;11.692;2023-04-25T02:44:05;3.50;;;2.60;;
6725;SDS011;3400;48.506;11.692;2023-04-25T02:46:33;3.43;;;3.07;;
6725;SDS011;3400;48.506;11.692;2023-04-25T02:49:01;4.63;;;3.50;;
6725;SDS011;3400;48.506;11.692;2023-04-25T02:51:29;3.70;;;3.03;;
6725;SDS011;3400;48.506;11.692;2023-04-25T02:53:58;3.70;;;3.33;;
6725;SDS011;3400;48.506;11.692;2023-04-25T02:56:26;4.07;;;2.90;;
6725;SDS011;3400;48.506;11.692;2023-04-25T02:58:54;4.20;;;3.80;;
6725;SDS011;3400;48.506;11.692;2023-04-25T03:01:24;5.40;;;3.50;;
6725;SDS011;3400;48.506;11.692;2023-04-25T03:03:52;4.10;;;3.60;;
6725;SDS011;3400;48.506;11.692;2023-04-25T03:06:20;4.67;;;3.60;;
6725;SDS011;3400;48.506;11.692;2023-04-25T03:08:48;3.27;;;2.97;;
6725;SDS011;3400;48.506;11.692;2023-04-25T03:11:17;4.10;;;3.73;;
6725;SDS011;3400;48.506;11.692;2023-04-25T03:13:46;4.33;;;3.37;;
6725;SDS011;3400;48.506;11.692;2023-04-25T03:16:14;3.93;;;3.53;;
6725;SDS011;3400;48.506;11.692;2023-04-25T03:18:43;4.93;;;3.23;;
6725;SDS011;3400;48.506;11.692;2023-04-25T03:21:11;5.63;;;3.90;;
6725;SDS011;3400;48.506;11.692;2023-04-25T03:23:39;5.53;;;3.87;;
6725;SDS011;3400;48.506;11.692;2023-04-25T03:26:07;8.10;;;4.10;;
6725;SDS011;3400;48.506;11.692;2023-04-25T03:28:36;5.73;;;4.23;;
6725;SDS011;3400;48.506;11.692;2023-04-25T03:31:06;4.50;;;4.10;;
6725;SDS011;3400;48.506;11.692;2023-04-25T03:33:34;4.60;;;3.90;;
6725;SDS011;3400;48.506;11.692;2023-04-25T03:36:03;4.07;;;3.77;;
6725;SDS011;3400;48.506;11.692;2023-04-25T03:38:32;7.43;;;4.10;;
6725;SDS011;3400;48.506;11.692;2023-04-25T03:41:00;5.20;;;4.10;;
6725;SDS011;3400;48.506;11.692;2023-04-25T03:43:40;4.77;;;3.80;;
6725;SDS011;3400;48.506;11.692;2023-04-25T03:46:11;4.40;;;4.00;;
6725;SDS011;3400;48.506;11.692;2023-04-25T03:48:40;4.13;;;3.73;;
6725;SDS011;3400;48.506;11.692;2023-04-25T03:51:13;5.20;;;4.03;;
6725;SDS011;3400;48.506;11.692;2023-04-25T03:53:43;5.17;;;3.93;;
6725;SDS011;3400;48.506;11.692;2023-04-25T03:56:30;4.47;;;4.07;;
6725;SDS011;3400;48.506;11.692;2023-04-25T03:59:14;4.53;;;3.60;;
6725;SDS011;3400;48.506;11.692;2023-04-25T04:01:42;4.17;;;3.60;;
6725;SDS011;3400;48.506;11.692;2023-04-25T04:04:10;4.40;;;4.00;;
6725;SDS011;3400;48.506;11.692;2023-04-25T04:06:39;4.73;;;3.90;;
6725;SDS011;3400;48.506;11.692;2023-04-25T04:09:13;6.97;;;4.30;;
6725;SDS011;3400;48.506;11.692;2023-04-25T04:11:43;4.00;;;3.70;;
6725;SDS011;3400;48.506;11.692;2023-04-25T04:14:11;3.87;;;3.57;;
6725;SDS011;3400;48.506;11.692;2023-04-25T04:16:43;4.57;;;3.77;;
6725;SDS011;3400;48.506;11.692;2023-04-25T04:19:11;5.97;;;5.00;;
6725;SDS011;3400;48.506;11.692;2023-04-25T04:21:45;5.77;;;4.30;;
6725;SDS011;3400;48.506;11.692;2023-04-25T04:24:13;5.97;;;4.77;;
6725;SDS011;3400;48.506;11.692;2023-04-25T04:26:54;4.43;;;4.03;;
6725;SDS011;3400;48.506;11.692;2023-04-25T04:29:33;6.90;;;4.37;;
6725;SDS011;3400;48.506;11.692;2023-04-25T04:32:15;4.30;;;3.80;;
6725;SDS011;3400;48.506;11.692;2023-04-25T04:34:44;4.37;;;3.97;;
6725;SDS011;3400;48.506;11.692;2023-04-25T04:37:16;3.80;;;3.50;;
6725;SDS011;3400;48.506;11.692;2023-04-25T04:39:44;5.57;;;4.07;;
6725;SDS011;3400;48.506;11.692;2023-04-25T04:42:45;6.07;;;4.37;;
6725;SDS011;3400;48.506;11.692;2023-04-25T04:45:27;4.47;;;4.10;;
6725;SDS011;3400;48.506;11.692;2023-04-25T04:48:27;4.10;;;3.70;;
6725;SDS011;3400;48.506;11.692;2023-04-25T04:51:18;5.80;;;4.53;;
6725;SDS011;3400;48.506;11.692;2023-04-25T04:54:20;6.83;;;4.40;;
6725;SDS011;3400;48.506;11.692;2023-04-25T04:57:17;7.20;;;4.10;;
6725;SDS011;3400;48.506;11.692;2023-04-25T05:00:12;6.43;;;3.80;;
6725;SDS011;3400;48.506;11.692;2023-04-25T05:02:47;4.43;;;3.93;;
6725;SDS011;3400;48.506;11.692;2023-04-25T05:05:50;4.70;;;4.17;;
6725;SDS011;3400;48.506;11.692;2023-04-25T05:08:31;4.30;;;3.80;;
6725;SDS011;3400;48.506;11.692;2023-04-25T05:11:16;4.77;;;3.73;;
6725;SDS011;3400;48.506;11.692;2023-04-25T05:14:04;6.33;;;4.13;;
6725;SDS011;3400;48.506;11.692;2023-04-25T05:16:38;6.30;;;4.17;;
6725;SDS011;3400;48.506;11.692;2023-04-25T05:19:29;5.53;;;3.73;;
6725;SDS011;3400;48.506;11.692;2023-04-25T05:22:17;5.00;;;3.83;;
6725;SDS011;3400;48.506;11.692;2023-04-25T05:25:14;4.97;;;3.43;;
6725;SDS011;3400;48.506;11.692;2023-04-25T05:28:02;4.13;;;3.10;;
6725;SDS011;3400;48.506;11.692;2023-04-25T05:30:56;6.73;;;3.30;;
6725;SDS011;3400;48.506;11.692;2023-04-25T05:33:40;4.07;;;3.10;;
6725;SDS011;3400;48.506;11.692;2023-04-25T05:36:08;3.70;;;3.40;;
6725;SDS011;3400;48.506;11.692;2023-04-25T05:38:36;4.10;;;3.00;;
6725;SDS011;3400;48.506;11.692;2023-04-25T05:41:13;7.00;;;2.73;;
6725;SDS011;3400;48.506;11.692;2023-04-25T05:43:47;3.33;;;3.13;;
6725;SDS011;3400;48.506;11.692;2023-04-25T05:46:33;4.43;;;3.37;;
6725;SDS011;3400;48.506;11.692;2023-04-25T05:49:21;3.00;;;2.77;;
6725;SDS011;3400;48.506;11.692;2023-04-25T05:52:02;3.10;;;2.47;;
6725;SDS011;3400;48.506;11.692;2023-04-25T05:54:32;3.50;;;3.10;;
6725;SDS011;3400;48.506;11.692;2023-04-25T05:57:00;3.30;;;3.00;;
6725;SDS011;3400;48.506;11.692;2023-04-25T05:59:30;3.60;;;3.10;;
6725;SDS011;3400;48.506;11.692;2023-04-25T06:01:58;3.37;;;3.00;;
6725;SDS011;3400;48.506;11.692;2023-04-25T06:04:27;7.20;;;3.70;;
6725;SDS011;3400;48.506;11.692;2023-04-25T06:06:55;5.50;;;3.27;;
6725;SDS011;3400;48.506;11.692;2023-04-25T06:09:23;3.23;;;2.70;;
6725;SDS011;3400;48.506;11.692;2023-04-25T06:11:53;3.37;;;3.07;;
6725;SDS011;3400;48.506;11.692;2023-04-25T06:14:21;4.63;;;3.17;;
6725;SDS011;3400;48.506;11.692;2023-04-25T06:16:51;4.10;;;3.33;;
6725;SDS011;3400;48.506;11.692;2023-04-25T06:19:19;4.83;;;3.20;;
6725;SDS011;3400;48.506;11.692;2023-04-25T06:21:47;4.57;;;3.00;;
6725;SDS011;3400;48.506;11.692;2023-04-25T06:24:15;5.60;;;2.60;;
6725;SDS011;3400;48.506;11.692;2023-04-25T06:26:44;5.37;;;2.83;;
6725;SDS011;3400;48.506;11.692;2023-04-25T06:29:13;3.10;;;2.80;;
6725;SDS011;3400;48.506;11.692;2023-04-25T06:31:41;4.83;;;2.70;;
6725;SDS011;3400;48.506;11.692;2023-04-25T06:34:11;2.93;;;2.50;;
6725;SDS011;3400;48.506;11.692;2023-04-25T06:36:40;3.03;;;2.40;;
6725;SDS011;3400;48.506;11.692;2023-04-25T06:39:13;3.17;;;2.83;;
6725;SDS011;3400;48.506;11.692;2023-04-25T06:41:41;2.53;;;2.37;;
6725;SDS011;3400;48.506;11.692;2023-04-25T06:44:29;3.97;;;2.50;;
6725;SDS011;3400;48.506;11.692;2023-04-25T06:46:57;2.73;;;2.50;;
6725;SDS011;3400;48.506;11.692;2023-04-25T06:49:27;6.47;;;2.70;;
6725;SDS011;3400;48.506;11.692;2023-04-25T06:51:55;3.20;;;2.23;;
6725;SDS011;3400;48.506;11.692;2023-04-25T06:54:23;4.60;;;2.77;;
6725;SDS011;3400;48.506;11.692;2023-04-25T06:57:00;3.07;;;2.30;;
6725;SDS011;3400;48.506;11.692;2023-04-25T06:59:28;2.43;;;2.00;;
6725;SDS011;3400;48.506;11.692;2023-04-25T07:01:56;3.63;;;2.40;;
6725;SDS011;3400;48.506;11.692;2023-04-25T07:04:27;4.80;;;3.00;;
6725;SDS011;3400;48.506;11.692;2023-04-25T07:06:57;5.30;;;2.63;;
6725;SDS011;3400;48.506;11.692;2023-04-25T07:09:36;2.20;;;2.03;;
6725;SDS011;3400;48.506;11.692;2023-04-25T07:12:05;2.70;;;2.33;;
6725;SDS011;3400;48.506;11.692;2023-04-25T07:14:33;2.60;;;2.40;;
6725;SDS011;3400;48.506;11.692;2023-04-25T07:17:01;4.07;;;2.27;;
6725;SDS011;3400;48.506;11.692;2023-04-25T07:19:34;3.33;;;2.40;;
6725;SDS011;3400;48.506;11.692;2023-04-25T07:22:03;2.23;;;2.03;;
6725;SDS011;3400;48.506;11.692;2023-04-25T07:24:32;3.33;;;2.00;;
6725;SDS011;3400;48.506;11.692;2023-04-25T07:27:00;3.73;;;2.50;;
6725;SDS011;3400;48.506;11.692;2023-04-25T07:29:49;2.87;;;2.30;;
6725;SDS011;3400;48.506;11.692;2023-04-25T07:32:17;5.60;;;2.30;;
6725;SDS011;3400;48.506;11.692;2023-04-25T07:34:47;2.20;;;1.97;;
6725;SDS011;3400;48.506;11.692;2023-04-25T07:37:14;2.73;;;2.20;;
6725;SDS011;3400;48.506;11.692;2023-04-25T07:39:57;3.40;;;2.13;;
6725;SDS011;3400;48.506;11.692;2023-04-25T07:42:25;3.63;;;2.00;;
6725;SDS011;3400;48.506;11.692;2023-04-25T07:44:53;2.57;;;2.00;;
6725;SDS011;3400;48.506;11.692;2023-04-25T07:47:21;2.33;;;2.10;;
6725;SDS011;3400;48.506;11.692;2023-04-25T07:49:52;2.23;;;1.53;;
6725;SDS011;3400;48.506;11.692;2023-04-25T07:52:21;4.37;;;2.23;;
6725;SDS011;3400;48.506;11.692;2023-04-25T07:54:53;2.67;;;1.90;;
6725;SDS011;3400;48.506;11.692;2023-04-25T07:57:28;2.10;;;1.90;;
6725;SDS011;3400;48.506;11.692;2023-04-25T07:59:57;2.37;;;2.17;;
6725;SDS011;3400;48.506;11.692;2023-04-25T08:02:26;3.87;;;2.33;;
6725;SDS011;3400;48.506;11.692;2023-04-25T08:04:56;3.83;;;2.20;;
6725;SDS011;3400;48.506;11.692;2023-04-25T08:07:24;3.20;;;2.37;;
6725;SDS011;3400;48.506;11.692;2023-04-25T08:09:54;3.37;;;2.27;;
6725;SDS011;3400;48.506;11.692;2023-04-25T08:12:27;1.90;;;1.80;;
6725;SDS011;3400;48.506;11.692;2023-04-25T08:14:56;2.43;;;2.20;;
6725;SDS011;3400;48.506;11.692;2023-04-25T08:17:28;3.80;;;2.10;;
6725;SDS011;3400;48.506;11.692;2023-04-25T08:19:57;2.27;;;1.77;;
6725;SDS011;3400;48.506;11.692;2023-04-25T08:22:30;2.37;;;1.90;;
6725;SDS011;3400;48.506;11.692;2023-04-25T08:25:13;3.13;;;2.00;;
6725;SDS011;3400;48.506;11.692;2023-04-25T08:27:42;2.50;;;1.63;;
6725;SDS011;3400;48.506;11.692;2023-04-25T08:30:10;3.00;;;2.17;;
6725;SDS011;3400;48.506;11.692;2023-04-25T08:32:40;3.43;;;2.30;;
6725;SDS011;3400;48.506;11.692;2023-04-25T08:35:24;3.10;;;2.27;;
6725;SDS011;3400;48.506;11.692;2023-04-25T08:37:52;3.07;;;2.37;;
6725;SDS011;3400;48.506;11.692;2023-04-25T08:40:21;3.63;;;2.10;;
6725;SDS011;3400;48.506;11.692;2023-04-25T08:42:57;2.90;;;2.00;;
6725;SDS011;3400;48.506;11.692;2023-04-25T08:45:26;2.43;;;1.93;;
6725;SDS011;3400;48.506;11.692;2023-04-25T08:47:55;2.37;;;1.73;;
6725;SDS011;3400;48.506;11.692;2023-04-25T08:50:26;4.07;;;2.10;;
6725;SDS011;3400;48.506;11.692;2023-04-25T08:52:54;3.97;;;2.73;;
6725;SDS011;3400;48.506;11.692;2023-04-25T08:55:22;2.67;;;2.43;;
6725;SDS011;3400;48.506;11.692;2023-04-25T08:57:56;4.53;;;2.60;;
6725;SDS011;3400;48.506;11.692;2023-04-25T09:00:26;5.43;;;2.87;;
6725;SDS011;3400;48.506;11.692;2023-04-25T09:02:56;4.77;;;2.53;;
6725;SDS011;3400;48.506;11.692;2023-04-25T09:05:29;3.23;;;2.90;;
6725;SDS011;3400;48.506;11.692;2023-04-25T09:07:57;3.83;;;2.30;;
6725;SDS011;3400;48.506;11.692;2023-04-25T09:10:27;2.40;;;2.20;;
6725;SDS011;3400;48.506;11.692;2023-04-25T09:13:04;2.47;;;1.93;;
6725;SDS011;3400;48.506;11.692;2023-04-25T09:15:46;3.97;;;2.40;;
6725;SDS011;3400;48.506;11.692;2023-04-25T09:18:33;3.70;;;2.37;;
6725;SDS011;3400;48.506;11.692;2023-04-25T09:21:06;2.10;;;1.90;;
6725;SDS011;3400;48.506;11.692;2023-04-25T09:23:38;2.50;;;2.10;;
6725;SDS011;3400;48.506;11.692;2023-04-25T09:26:07;2.50;;;2.13;;
6725;SDS011;3400;48.506;11.692;2023-04-25T09:28:35;2.63;;;2.30;;
6725;SDS011;3400;48.506;11.692;2023-04-25T09:31:03;3.17;;;2.23;;
6725;SDS011;3400;48.506;11.692;2023-04-25T09:33:36;2.43;;;2.23;;
6725;SDS011;3400;48.506;11.692;2023-04-25T09:36:07;2.60;;;2.40;;
6725;SDS011;3400;48.506;11.692;2023-04-25T09:39:00;2.40;;;2.20;;
6725;SDS011;3400;48.506;11.692;2023-04-25T09:41:32;2.97;;;2.00;;
6725;SDS011;3400;48.506;11.692;2023-04-25T09:44:06;4.10;;;2.27;;
6725;SDS011;3400;48.506;11.692;2023-04-25T09:46:36;2.87;;;1.73;;
6725;SDS011;3400;48.506;11.692;2023-04-25T09:49:14;3.43;;;2.53;;
6725;SDS011;3400;48.506;11.692;2023-04-25T09:51:55;3.30;;;2.17;;
6725;SDS011;3400;48.506;11.692;2023-04-25T09:54:26;2.70;;;1.70;;
6725;SDS011;3400;48.506;11.692;2023-04-25T09:57:10;5.87;;;2.67;;
6725;SDS011;3400;48.506;11.692;2023-04-25T09:59:39;2.70;;;2.43;;
6725;SDS011;3400;48.506;11.692;2023-04-25T10:02:07;2.93;;;2.17;;
6725;SDS011;3400;48.506;11.692;2023-04-25T10:04:38;2.83;;;2.40;;
6725;SDS011;3400;48.506;11.692;2023-04-25T10:07:18;2.57;;;2.37;;
6725;SDS011;3400;48.506;11.692;2023-04-25T10:09:47;2.53;;;2.13;;
6725;SDS011;3400;48.506;11.692;2023-04-25T10:12:15;2.00;;;1.80;;
6725;SDS011;3400;48.506;11.692;2023-04-25T10:14:44;3.17;;;2.57;;
6725;SDS011;3400;48.506;11.692;2023-04-25T10:17:12;2.93;;;2.37;;
6725;SDS011;3400;48.506;11.692;2023-04-25T10:19:40;3.00;;;2.30;;
6725;SDS011;3400;48.506;11.692;2023-04-25T10:22:08;2.10;;;2.00;;
6725;SDS011;3400;48.506;11.692;2023-04-25T10:24:40;3.00;;;1.77;;
6725;SDS011;3400;48.506;11.692;2023-04-25T10:27:08;2.20;;;2.00;;
6725;SDS011;3400;48.506;11.692;2023-04-25T10:29:36;2.73;;;1.80;;
6725;SDS011;3400;48.506;11.692;2023-04-25T10:32:04;5.47;;;2.00;;
6725;SDS011;3400;48.506;11.692;2023-04-25T10:34:38;2.30;;;1.93;;
6725;SDS011;3400;48.506;11.692;2023-04-25T10:37:08;1.70;;;1.60;;
6725;SDS011;3400;48.506;11.692;2023-04-25T10:39:38;2.30;;;2.20;;
6725;SDS011;3400;48.506;11.692;2023-04-25T10:42:07;2.30;;;2.10;;
6725;SDS011;3400;48.506;11.692;2023-04-25T10:44:36;3.37;;;2.10;;
6725;SDS011;3400;48.506;11.692;2023-04-25T10:47:06;4.57;;;2.53;;
6725;SDS011;3400;48.506;11.692;2023-04-25T10:49:35;2.87;;;2.67;;
6725;SDS011;3400;48.506;11.692;2023-04-25T10:52:16;3.10;;;2.80;;
6725;SDS011;3400;48.506;11.692;2023-04-25T10:54:47;2.60;;;2.40;;
6725;SDS011;3400;48.506;11.692;2023-04-25T10:57:32;2.80;;;2.60;;
6725;SDS011;3400;48.506;11.692;2023-04-25T11:00:10;2.60;;;2.40;;
6725;SDS011;3400;48.506;11.692;2023-04-25T11:02:42;3.67;;;2.80;;
6725;SDS011;3400;48.506;11.692;2023-04-25T11:05:14;2.60;;;2.40;;
6725;SDS011;3400;48.506;11.692;2023-04-25T11:07:44;2.93;;;2.73;;
6725;SDS011;3400;48.506;11.692;2023-04-25T11:10:17;2.17;;;2.07;;
6725;SDS011;3400;48.506;11.692;2023-04-25T11:12:47;3.13;;;2.77;;
6725;SDS011;3400;48.506;11.692;2023-04-25T11:15:14;2.40;;;2.20;;
6725;SDS011;3400;48.506;11.692;2023-04-25T11:17:42;2.60;;;2.40;;
6725;SDS011;3400;48.506;11.692;2023-04-25T11:20:12;5.17;;;2.37;;
6725;SDS011;3400;48.506;11.692;2023-04-25T11:22:40;2.93;;;2.00;;
6725;SDS011;3400;48.506;11.692;2023-04-25T11:25:09;2.70;;;2.30;;
6725;SDS011;3400;48.506;11.692;2023-04-25T11:27:37;2.20;;;2.10;;
6725;SDS011;3400;48.506;11.692;2023-04-25T11:30:11;2.40;;;2.10;;
6725;SDS011;3400;48.506;11.692;2023-04-25T11:32:40;2.60;;;2.40;;
6725;SDS011;3400;48.506;11.692;2023-04-25T11:35:08;2.00;;;1.80;;
6725;SDS011;3400;48.506;11.692;2023-04-25T11:37:38;2.90;;;1.90;;
6725;SDS011;3400;48.506;11.692;2023-04-25T11:40:06;2.10;;;2.00;;
6725;SDS011;3400;48.506;11.692;2023-04-25T11:42:36;2.73;;;2.53;;
6725;SDS011;3400;48.506;11.692;2023-04-25T11:45:05;2.10;;;2.00;;
6725;SDS011;3400;48.506;11.692;2023-04-25T11:47:35;3.73;;;2.20;;
6725;SDS011;3400;48.506;11.692;2023-04-25T11:50:03;2.00;;;1.90;;
6725;SDS011;3400;48.506;11.692;2023-04-25T11:52:40;1.37;;;1.37;;
6725;SDS011;3400;48.506;11.692;2023-04-25T11:55:10;1.23;;;1.23;;
6725;SDS011;3400;48.506;11.692;2023-04-25T11:57:38;2.60;;;1.20;;
6725;SDS011;3400;48.506;11.692;2023-04-25T12:00:08;1.10;;;1.00;;
6725;SDS011;3400;48.506;11.692;2023-04-25T12:02:41;1.30;;;1.30;;
6725;SDS011;3400;48.506;11.692;2023-04-25T12:05:10;1.50;;;1.40;;
6725;SDS011;3400;48.506;11.692;2023-04-25T12:07:38;1.80;;;1.70;;
6725;SDS011;3400;48.506;11.692;2023-04-25T12:10:08;1.60;;;1.50;;
6725;SDS011;3400;48.506;11.692;2023-04-25T12:12:38;1.80;;;1.70;;
6725;SDS011;3400;48.506;11.692;2023-04-25T12:15:09;2.37;;;2.17;;
6725;SDS011;3400;48.506;11.692;2023-04-25T12:17:38;3.03;;;2.83;;
6725;SDS011;3400;48.506;11.692;2023-04-25T12:20:08;2.60;;;2.40;;
6725;SDS011;3400;48.506;11.692;2023-04-25T12:22:37;1.70;;;1.60;;
6725;SDS011;3400;48.506;11.692;2023-04-25T12:25:06;1.97;;;1.87;;
6725;SDS011;3400;48.506;11.692;2023-04-25T12:27:40;2.17;;;2.00;;
6725;SDS011;3400;48.506;11.692;2023-04-25T12:30:10;2.50;;;2.40;;
6725;SDS011;3400;48.506;11.692;2023-04-25T12:32:38;4.17;;;2.80;;
6725;SDS011;3400;48.506;11.692;2023-04-25T12:35:08;4.20;;;2.80;;
6725;SDS011;3400;48.506;11.692;2023-04-25T12:37:37;3.30;;;3.00;;
6725;SDS011;3400;48.506;11.692;2023-04-25T12:40:07;2.27;;;2.17;;
6725;SDS011;3400;48.506;11.692;2023-04-25T12:42:35;2.33;;;2.23;;
6725;SDS011;3400;48.506;11.692;2023-04-25T12:45:03;2.13;;;2.00;;
6725;SDS011;3400;48.506;11.692;2023-04-25T12:47:34;4.17;;;2.13;;
6725;SDS011;3400;48.506;11.692;2023-04-25T12:50:03;2.03;;;1.93;;
6725;SDS011;3400;48.506;11.692;2023-04-25T12:52:33;2.10;;;2.00;;
6725;SDS011;3400;48.506;11.692;2023-04-25T12:55:01;2.20;;;2.10;;
6725;SDS011;3400;48.506;11.692;2023-04-25T12:57:29;3.13;;;2.20;;
6725;SDS011;3400;48.506;11.692;2023-04-25T12:59:59;2.23;;;2.07;;
6725;SDS011;3400;48.506;11.692;2023-04-25T13:02:27;1.90;;;1.80;;
6725;SDS011;3400;48.506;11.692;2023-04-25T13:04:55;1.40;;;1.37;;
6725;SDS011;3400;48.506;11.692;2023-04-25T13:07:23;2.53;;;1.20;;
6725;SDS011;3400;48.506;11.692;2023-04-25T13:09:52;1.73;;;1.50;;
6725;SDS011;3400;48.506;11.692;2023-04-25T13:12:21;1.40;;;1.30;;
6725;SDS011;3400;48.506;11.692;2023-04-25T13:14:49;1.63;;;1.20;;
6725;SDS011;3400;48.506;11.692;2023-04-25T13:17:17;1.80;;;1.00;;
6725;SDS011;3400;48.506;11.692;2023-04-25T13:19:47;1.33;;;1.23;;
6725;SDS011;3400;48.506;11.692;2023-04-25T13:22:20;1.00;;;1.00;;
6725;SDS011;3400;48.506;11.692;2023-04-25T13:24:48;1.07;;;1.07;;
6725;SDS011;3400;48.506;11.692;2023-04-25T13:27:17;1.33;;;1.33;;
6725;SDS011;3400;48.506;11.692;2023-04-25T13:29:45;2.50;;;1.50;;
6725;SDS011;3400;48.506;11.692;2023-04-25T13:32:13;3.47;;;1.87;;
6725;SDS011;3400;48.506;11.692;2023-04-25T13:34:41;1.60;;;1.50;;
6725;SDS011;3400;48.506;11.692;2023-04-25T13:37:09;1.83;;;1.73;;
6725;SDS011;3400;48.506;11.692;2023-04-25T13:39:37;2.40;;;2.27;;
6725;SDS011;3400;48.506;11.692;2023-04-25T13:42:04;2.60;;;2.47;;
6725;SDS011;3400;48.506;11.692;2023-04-25T13:44:34;2.47;;;2.30;;
6725;SDS011;3400;48.506;11.692;2023-04-25T13:47:02;3.37;;;3.07;;
6725;SDS011;3400;48.506;11.692;2023-04-25T13:49:29;3.20;;;3.00;;
6725;SDS011;3400;48.506;11.692;2023-04-25T13:51:57;3.10;;;2.80;;
6725;SDS011;3400;48.506;11.692;2023-04-25T13:54:25;4.73;;;3.03;;
6725;SDS011;3400;48.506;11.692;2023-04-25T13:56:53;2.63;;;2.43;;
6725;SDS011;3400;48.506;11.692;2023-04-25T13:59:24;2.00;;;1.90;;
6725;SDS011;3400;48.506;11.692;2023-04-25T14:01:53;2.37;;;2.27;;
6725;SDS011;3400;48.506;11.692;2023-04-25T14:04:21;2.83;;;2.63;;
6725;SDS011;3400;48.506;11.692;2023-04-25T14:06:49;2.50;;;2.40;;
6725;SDS011;3400;48.506;11.692;2023-04-25T14:09:18;2.77;;;2.53;;
6725;SDS011;3400;48.506;11.692;2023-04-25T14:11:46;2.97;;;2.70;;
6725;SDS011;3400;48.506;11.692;2023-04-25T14:14:14;2.37;;;2.27;;
6725;SDS011;3400;48.506;11.692;2023-04-25T14:16:42;3.00;;;2.67;;
6725;SDS011;3400;48.506;11.692;2023-04-25T14:19:11;2.40;;;2.30;;
6725;SDS011;3400;48.506;11.692;2023-04-25T14:21:39;2.17;;;2.07;;
6725;SDS011;3400;48.506;11.692;2023-04-25T14:24:06;3.33;;;2.90;;
6725;SDS011;3400;48.506;11.692;2023-04-25T14:26:34;2.30;;;2.20;;
6725;SDS011;3400;48.506;11.692;2023-04-25T14:29:02;2.90;;;2.30;;
6725;SDS011;3400;48.506;11.692;2023-04-25T14:31:31;2.93;;;2.73;;
6725;SDS011;3400;48.506;11.692;2023-04-25T14:33:59;3.67;;;2.80;;
6725;SDS011;3400;48.506;11.692;2023-04-25T14:36:29;2.80;;;2.60;;
6725;SDS011;3400;48.506;11.692;2023-04-25T14:38:57;3.10;;;2.90;;
6725;SDS011;3400;48.506;11.692;2023-04-25T14:41:25;2.90;;;2.70;;
6725;SDS011;3400;48.506;11.692;2023-04-25T14:43:53;2.73;;;2.53;;
6725;SDS011;3400;48.506;11.692;2023-04-25T14:46:22;2.83;;;2.63;;
6725;SDS011;3400;48.506;11.692;2023-04-25T14:48:50;2.73;;;2.53;;
6725;SDS011;3400;48.506;11.692;2023-04-25T14:51:19;2.70;;;2.50;;
6725;SDS011;3400;48.506;11.692;2023-04-25T14:53:49;2.63;;;2.43;;
6725;SDS011;3400;48.506;11.692;2023-04-25T14:56:17;4.17;;;2.60;;
6725;SDS011;3400;48.506;11.692;2023-04-25T14:58:44;2.70;;;2.50;;
6725;SDS011;3400;48.506;11.692;2023-04-25T15:01:12;2.80;;;2.47;;
6725;SDS011;3400;48.506;11.692;2023-04-25T15:03:40;2.00;;;1.90;;
6725;SDS011;3400;48.506;11.692;2023-04-25T15:06:08;2.27;;;2.17;;
6725;SDS011;3400;48.506;11.692;2023-04-25T15:08:36;2.57;;;2.27;;
6725;SDS011;3400;48.506;11.692;2023-04-25T15:11:05;2.70;;;2.50;;
6725;SDS011;3400;48.506;11.692;2023-04-25T15:13:33;2.90;;;2.33;;
6725;SDS011;3400;48.506;11.692;2023-04-25T15:16:01;2.83;;;2.13;;
6725;SDS011;3400;48.506;11.692;2023-04-25T15:18:29;3.37;;;2.57;;
6725;SDS011;3400;48.506;11.692;2023-04-25T15:20:58;3.83;;;2.80;;
6725;SDS011;3400;48.506;11.692;2023-04-25T15:23:26;7.33;;;3.77;;
6725;SDS011;3400;48.506;11.692;2023-04-25T15:25:53;4.00;;;3.70;;